Time,TemperatureF,DewpointF,PressureIn,WindDirection,WindDirectionDegrees,WindSpeedMPH,WindSpeedGustMPH,Humidity,HourlyPrecipIn,Conditions,Clouds,dailyrainin,SolarRadiationWatts/m^2,SoftwareType,DateUTC
2013-09-12 00:02:00,58.0,56.6,29.99,WSW,257,0.0,0.0,95,0.00,RA,,0.00,0.0,WeatherDisplay:10.37,2013-09-12 05:02:00,
2013-09-12 00:07:00,57.6,56.2,29.98,WSW,257,0.0,0.0,95,0.00,RA,,0.00,0.0,WeatherDisplay:10.37,2013-09-12 05:07:00,
2013-09-12 00:12:00,57.6,56.2,29.98,WSW,257,0.0,0.0,95,0.00,BKN,,0.00,0.0,WeatherDisplay:10.37,2013-09-12 05:12:00,
2013-09-12 00:17:00,57.6,56.2,29.98,WSW,257,0.0,0.0,95,0.00,FEW,,0.00,0.0,WeatherDisplay:10.37,2013-09-12 05:17:00,
2013-09-12 00:22:00,56.9,55.5,29.98,WSW,257,0.0,0.0,95,0.00,FEW,,0.00,0.0,WeatherDisplay:10.37,2013-09-12 05:22:00,
2013-09-12 00:27:00,57.6,56.2,29.98,WSW,257,0.0,0.0,95,0.00,FEW,,0.00,0.0,WeatherDisplay:10.37,2013-09-12 05:27:00,
2013-09-12 00:32:00,56.5,55.1,29.98,WSW,257,0.0,0.0,95,0.00,FEW,,0.00,0.0,WeatherDisplay:10.37,2013-09-12 05:32:00,
2013-09-12 00:37:00,57.6,56.2,29.98,WSW,257,0.0,0.0,95,0.00,FEW,,0.00,0.0,WeatherDisplay:10.37,2013-09-12 05:37:00,
2013-09-12 00:43:00,55.9,54.5,29.98,WSW,257,0.0,0.0,95,0.00,FEW,,0.00,0.0,WeatherDisplay:10.37,2013-09-12 05:43:00,
2013-09-12 00:48:00,57.6,56.2,29.98,WSW,257,0.0,0.0,95,0.00,FEW,,0.00,0.0,WeatherDisplay:10.37,2013-09-12 05:48:00,
2013-09-12 00:53:00,55.5,54.1,29.98,WSW,257,0.0,0.0,95,0.00,FEW,,0.00,0.0,WeatherDisplay:10.37,2013-09-12 05:53:00,
2013-09-12 00:58:00,57.6,56.2,29.98,WSW,257,0.0,0.0,95,0.00,FEW,,0.00,0.0,WeatherDisplay:10.37,2013-09-12 05:58:00,
2013-09-12 01:03:00,55.0,53.6,29.99,WSW,257,0.0,0.0,95,0.00,SCT,,0.00,0.0,WeatherDisplay:10.37,2013-09-12 06:03:00,
2013-09-12 01:08:00,57.6,56.2,29.98,WSW,257,0.0,0.0,95,0.00,SCT,,0.00,0.0,WeatherDisplay:10.37,2013-09-12 06:08:00,
2013-09-12 01:13:00,54.6,53.2,29.99,WSW,257,0.0,0.0,95,0.00,SCT,,0.00,0.0,WeatherDisplay:10.37,2013-09-12 06:13:00,
2013-09-12 01:18:00,54.5,53.1,30.00,WSW,257,0.0,0.0,95,0.00,SCT,,0.00,0.0,WeatherDisplay:10.37,2013-09-12 06:18:00,
2013-09-12 01:23:00,54.4,53.3,30.00,WSW,257,0.0,0.0,96,0.00,SCT,,0.00,0.0,WeatherDisplay:10.37,2013-09-12 06:23:00,
2013-09-12 01:28:00,57.6,56.2,29.98,WSW,257,0.0,0.0,95,0.00,SCT,,0.00,0.0,WeatherDisplay:10.37,2013-09-12 06:28:00,
2013-09-12 01:33:00,54.5,53.7,30.00,SW,231,2.0,2.0,97,0.00,BKN,,0.00,0.0,WeatherDisplay:10.37,2013-09-12 06:33:00,
2013-09-12 01:38:00,55.0,54.2,30.01,SW,231,1.1,0.0,97,0.00,BKN,,0.00,0.0,WeatherDisplay:10.37,2013-09-12 06:38:00,
2013-09-12 01:43:00,55.4,54.6,30.01,SW,231,0.0,0.0,97,0.00,BKN,,0.00,0.0,WeatherDisplay:10.37,2013-09-12 06:43:00,
2013-09-12 01:48:00,55.8,55.0,30.01,East,90,0.0,0.0,97,0.00,OVC,,0.00,0.0,WeatherDisplay:10.37,2013-09-12 06:48:00,
2013-09-12 01:53:00,54.9,54.1,30.01,SW,231,0.0,0.0,97,0.00,OVC,,0.00,0.0,WeatherDisplay:10.37,2013-09-12 06:53:00,
2013-09-12 01:58:00,54.9,54.1,30.01,SW,231,0.0,0.0,97,0.00,OVC,,0.00,0.0,WeatherDisplay:10.37,2013-09-12 06:58:00,
2013-09-12 02:03:00,56.7,56.1,30.01,WNW,299,1.1,1.1,98,0.00,OVC,,0.00,0.0,WeatherDisplay:10.37,2013-09-12 07:03:00,
2013-09-12 02:08:00,56.9,56.3,30.01,SW,220,2.3,2.3,98,0.00,OVC,,0.00,0.0,WeatherDisplay:10.37,2013-09-12 07:08:00,
2013-09-12 02:13:00,57.0,56.4,30.01,SSE,167,0.0,0.0,98,0.00,OVC,,0.00,0.0,WeatherDisplay:10.37,2013-09-12 07:13:00,
2013-09-12 02:18:00,57.1,56.5,30.01,SSE,167,0.0,0.0,98,0.00,BKN,,0.00,0.0,WeatherDisplay:10.37,2013-09-12 07:18:00,
2013-09-12 02:23:00,57.1,56.5,30.01,SSE,167,1.1,1.1,98,0.00,BKN,,0.00,0.0,WeatherDisplay:10.37,2013-09-12 07:23:00,
2013-09-12 02:28:00,57.1,56.5,30.01,SSE,167,0.0,0.1,98,0.00,BKN,,0.00,0.0,WeatherDisplay:10.37,2013-09-12 07:28:00,
2013-09-12 02:33:00,56.9,56.3,30.02,NE,35,0.0,0.0,98,0.00,SCT,,0.00,0.0,WeatherDisplay:10.37,2013-09-12 07:33:00,
2013-09-12 02:38:00,57.1,56.5,30.01,SSE,167,0.0,0.1,98,0.00,SCT,,0.00,0.0,WeatherDisplay:10.37,2013-09-12 07:38:00,
2013-09-12 02:43:00,56.7,55.9,30.03,North,9,0.0,0.0,97,0.00,SCT,,0.00,0.0,WeatherDisplay:10.37,2013-09-12 07:43:00,
2013-09-12 02:48:00,56.6,55.8,30.03,WNW,297,0.0,0.0,97,0.00,SCT,,0.00,0.0,WeatherDisplay:10.37,2013-09-12 07:48:00,
2013-09-12 02:53:00,56.6,55.8,30.03,WSW,241,0.0,0.0,97,0.00,SCT,,0.00,0.0,WeatherDisplay:10.37,2013-09-12 07:53:00,
2013-09-12 02:58:00,56.5,55.7,30.03,North,355,0.0,0.0,97,0.00,SCT,,0.00,0.0,WeatherDisplay:10.37,2013-09-12 07:58:00,
2013-09-12 03:03:00,56.4,55.6,30.03,North,355,0.0,0.0,97,0.00,CLR,,0.00,0.0,WeatherDisplay:10.37,2013-09-12 08:03:00,
2013-09-12 03:08:00,56.3,55.5,30.03,NW,309,1.1,1.1,97,0.00,CLR,,0.00,0.0,WeatherDisplay:10.37,2013-09-12 08:08:00,
2013-09-12 03:13:00,56.4,55.6,30.03,North,355,0.0,0.0,97,0.00,CLR,,0.00,0.0,WeatherDisplay:10.37,2013-09-12 08:13:00,
2013-09-12 03:18:00,56.4,55.6,30.03,North,355,0.0,0.0,97,0.00,CLR,,0.00,0.0,WeatherDisplay:10.37,2013-09-12 08:18:00,
2013-09-12 03:23:00,56.4,55.6,30.03,North,355,0.0,0.0,97,0.00,CLR,,0.00,0.0,WeatherDisplay:10.37,2013-09-12 08:23:00,
2013-09-12 03:28:00,56.4,55.6,30.03,North,355,0.0,0.0,97,0.00,CLR,,0.00,0.0,WeatherDisplay:10.37,2013-09-12 08:28:00,
2013-09-12 03:33:00,56.4,55.6,30.03,North,355,0.0,0.0,97,0.00,CLR,,0.00,0.0,WeatherDisplay:10.37,2013-09-12 08:33:00,
2013-09-12 03:38:00,55.3,53.9,30.04,WNW,296,3.5,3.5,95,0.00,CLR,,0.00,0.0,WeatherDisplay:10.37,2013-09-12 08:38:00,
2013-09-12 03:43:00,55.1,53.7,30.04,NNE,15,3.0,3.0,95,0.00,CLR,,0.00,0.0,WeatherDisplay:10.37,2013-09-12 08:43:00,
2013-09-12 03:48:00,56.4,55.6,30.03,North,355,0.0,0.0,97,0.00,CLR,,0.00,0.0,WeatherDisplay:10.37,2013-09-12 08:48:00,
2013-09-12 03:53:00,56.4,55.6,30.03,North,355,0.0,0.0,97,0.00,CLR,,0.00,0.0,WeatherDisplay:10.37,2013-09-12 08:53:00,
2013-09-12 03:58:00,54.8,53.4,30.04,WSW,249,0.0,0.0,95,0.00,CLR,,0.00,0.0,WeatherDisplay:10.37,2013-09-12 08:58:00,
2013-09-12 04:03:00,56.4,55.6,30.03,North,355,0.0,0.0,97,0.00,CLR,,0.00,0.0,WeatherDisplay:10.37,2013-09-12 09:03:00,
2013-09-12 04:08:00,54.6,53.2,30.04,NNE,23,0.0,0.0,95,0.00,CLR,,0.00,0.0,WeatherDisplay:10.37,2013-09-12 09:08:00,
2013-09-12 04:13:00,56.4,55.6,30.03,North,355,0.0,0.0,97,0.00,CLR,,0.00,0.0,WeatherDisplay:10.37,2013-09-12 09:13:00,
2013-09-12 04:18:00,56.4,55.6,30.03,North,355,0.0,0.0,97,0.00,OVC,,0.00,0.0,WeatherDisplay:10.37,2013-09-12 09:18:00,
2013-09-12 04:23:00,54.3,52.9,30.04,SW,231,1.0,1.0,95,0.00,OVC,,0.00,0.0,WeatherDisplay:10.37,2013-09-12 09:23:00,
2013-09-12 04:28:00,54.2,52.8,30.04,NNE,15,2.3,2.3,95,0.01,RA,,0.01,0.0,WeatherDisplay:10.37,2013-09-12 09:28:00,
2013-09-12 04:33:00,56.4,55.6,30.03,North,355,0.0,0.0,97,0.00,OVC,,0.00,0.0,WeatherDisplay:10.37,2013-09-12 09:33:00,
2013-09-12 04:38:00,54.2,53.1,30.04,NNE,16,0.0,0.0,96,0.01,OVC,,0.01,0.0,WeatherDisplay:10.37,2013-09-12 09:38:00,
2013-09-12 04:43:00,54.1,53.0,30.04,WSW,252,2.0,2.0,96,0.01,RA,,0.01,0.0,WeatherDisplay:10.37,2013-09-12 09:43:00,
2013-09-12 04:48:00,54.2,53.1,30.04,NNE,16,0.0,0.0,96,0.01,OVC,,0.01,0.0,WeatherDisplay:10.37,2013-09-12 09:48:00,
2013-09-12 04:53:00,54.1,53.0,30.05,SW,233,2.3,2.3,96,0.01,OVC,,0.01,0.0,WeatherDisplay:10.37,2013-09-12 09:53:00,
2013-09-12 04:58:00,54.0,52.9,30.05,NNE,32,1.1,1.1,96,0.01,OVC,,0.01,0.0,WeatherDisplay:10.37,2013-09-12 09:58:00,
2013-09-12 05:03:00,54.0,52.9,30.05,NNE,32,0.0,0.0,96,0.01,OVC,,0.01,0.0,WeatherDisplay:10.37,2013-09-12 10:03:00,
2013-09-12 05:08:00,54.0,52.9,30.05,SW,229,0.0,0.0,96,0.01,OVC,,0.01,0.0,WeatherDisplay:10.37,2013-09-12 10:08:00,
2013-09-12 05:13:00,53.9,52.5,30.06,NNW,329,1.1,0.0,95,0.01,OVC,,0.01,0.0,WeatherDisplay:10.37,2013-09-12 10:13:00,
2013-09-12 05:18:00,53.9,52.5,30.06,West,261,2.3,2.3,95,0.01,OVC,,0.01,0.0,WeatherDisplay:10.37,2013-09-12 10:18:00,
2013-09-12 05:23:00,54.0,52.6,30.06,WNW,284,1.1,0.0,95,0.01,OVC,,0.01,0.0,WeatherDisplay:10.37,2013-09-12 10:23:00,
2013-09-12 05:28:00,54.0,52.9,30.06,NNW,348,2.0,2.0,96,0.00,OVC,,0.01,0.0,WeatherDisplay:10.37,2013-09-12 10:28:00,
2013-09-12 05:33:00,54.0,52.9,30.05,SW,229,0.0,0.0,96,0.01,OVC,,0.01,0.0,WeatherDisplay:10.37,2013-09-12 10:33:00,
2013-09-12 05:38:00,54.0,52.9,30.06,NNW,348,0.0,0.0,96,0.00,OVC,,0.01,0.0,WeatherDisplay:10.37,2013-09-12 10:38:00,
2013-09-12 05:43:00,54.1,53.0,30.07,WNW,303,1.0,1.0,96,0.00,OVC,,0.01,0.0,WeatherDisplay:10.37,2013-09-12 10:43:00,
2013-09-12 05:48:00,54.0,52.9,30.06,NNW,348,0.0,0.0,96,0.00,OVC,,0.01,0.0,WeatherDisplay:10.37,2013-09-12 10:48:00,
2013-09-12 05:53:00,54.0,52.9,30.06,NNW,348,0.0,0.0,96,0.00,OVC,,0.01,0.0,WeatherDisplay:10.37,2013-09-12 10:53:00,
2013-09-12 05:58:00,54.1,53.0,30.07,West,260,0.0,0.0,96,0.00,OVC,,0.01,0.0,WeatherDisplay:10.37,2013-09-12 10:58:00,
2013-09-12 06:03:00,54.0,52.9,30.06,NNW,348,0.0,0.0,96,0.00,OVC,,0.01,0.0,WeatherDisplay:10.37,2013-09-12 11:03:00,
2013-09-12 06:08:00,54.2,53.1,30.07,West,260,0.0,0.0,96,0.00,OVC,,0.01,0.0,WeatherDisplay:10.37,2013-09-12 11:08:00,
2013-09-12 06:14:00,54.2,53.1,30.08,West,260,1.0,1.0,96,0.00,OVC,,0.01,0.0,WeatherDisplay:10.37,2013-09-12 11:14:00,
2013-09-12 06:19:00,54.2,53.1,30.08,South,182,1.1,1.1,96,0.00,OVC,,0.01,0.0,WeatherDisplay:10.37,2013-09-12 11:19:00,
2013-09-12 06:24:00,54.3,53.2,30.08,ESE,117,1.1,0.0,96,0.00,OVC,,0.01,0.0,WeatherDisplay:10.37,2013-09-12 11:24:00,
2013-09-12 06:29:00,54.0,52.9,30.06,NNW,348,0.0,0.0,96,0.00,OVC,,0.01,0.0,WeatherDisplay:10.37,2013-09-12 11:29:00,
2013-09-12 06:34:00,54.3,53.2,30.08,ESE,117,0.0,0.0,96,0.00,OVC,,0.01,0.0,WeatherDisplay:10.37,2013-09-12 11:34:00,
2013-09-12 06:39:00,54.4,53.3,30.08,ESE,117,1.1,1.1,96,0.00,OVC,,0.01,0.0,WeatherDisplay:10.37,2013-09-12 11:39:00,
2013-09-12 06:44:00,54.3,53.2,30.08,ESE,117,0.0,0.0,96,0.00,OVC,,0.01,0.0,WeatherDisplay:10.37,2013-09-12 11:44:00,
2013-09-12 06:49:00,54.3,53.2,30.08,ESE,117,0.0,0.0,96,0.00,OVC,,0.01,0.0,WeatherDisplay:10.37,2013-09-12 11:49:00,
2013-09-12 06:54:00,54.3,53.2,30.08,ESE,117,0.0,0.0,96,0.00,OVC,,0.01,0.0,WeatherDisplay:10.37,2013-09-12 11:54:00,
2013-09-12 06:59:00,54.5,53.1,30.09,North,355,1.1,1.1,95,0.00,OVC,,0.01,0.0,WeatherDisplay:10.37,2013-09-12 11:59:00,
2013-09-12 07:04:00,54.3,53.2,30.08,ESE,117,0.0,0.0,96,0.00,OVC,,0.01,0.0,WeatherDisplay:10.37,2013-09-12 12:04:00,
2013-09-12 07:09:00,54.4,53.0,30.09,West,277,1.1,1.1,95,0.00,OVC,,0.01,0.0,WeatherDisplay:10.37,2013-09-12 12:09:00,
2013-09-12 07:14:00,54.5,53.1,30.09,NNW,337,3.0,3.0,95,0.00,OVC,,0.01,9.0,WeatherDisplay:10.37,2013-09-12 12:14:00,
2013-09-12 07:19:00,54.3,53.2,30.08,ESE,117,0.0,0.0,96,0.00,OVC,,0.01,0.0,WeatherDisplay:10.37,2013-09-12 12:19:00,
2013-09-12 07:24:00,54.6,53.2,30.10,West,269,1.1,1.1,95,0.00,OVC,,0.01,11.0,WeatherDisplay:10.37,2013-09-12 12:24:00,
2013-09-12 07:29:00,54.3,53.2,30.08,ESE,117,0.0,0.0,96,0.00,OVC,,0.01,0.0,WeatherDisplay:10.37,2013-09-12 12:29:00,
2013-09-12 07:34:00,54.6,52.9,30.10,WNW,284,0.0,0.0,94,0.00,OVC,,0.01,12.0,WeatherDisplay:10.37,2013-09-12 12:34:00,
2013-09-12 07:39:00,54.3,53.2,30.08,ESE,117,0.0,0.0,96,0.00,OVC,,0.01,0.0,WeatherDisplay:10.37,2013-09-12 12:39:00,
2013-09-12 07:44:00,54.8,53.1,30.10,NNW,336,1.1,0.0,94,0.00,OVC,,0.01,18.0,WeatherDisplay:10.37,2013-09-12 12:44:00,
2013-09-12 07:49:00,54.8,53.1,30.11,North,350,1.1,1.1,94,0.00,OVC,,0.01,14.0,WeatherDisplay:10.37,2013-09-12 12:49:00,
2013-09-12 07:54:00,54.3,53.2,30.08,ESE,117,0.0,0.0,96,0.00,OVC,,0.01,0.0,WeatherDisplay:10.37,2013-09-12 12:54:00,
2013-09-12 07:59:00,54.9,53.2,30.10,North,355,1.1,1.1,94,0.00,OVC,,0.01,21.0,WeatherDisplay:10.37,2013-09-12 12:59:00,
2013-09-12 08:04:00,55.0,53.3,30.10,NNW,342,1.1,0.0,94,0.00,BKN,,0.01,25.0,WeatherDisplay:10.37,2013-09-12 13:04:00,
2013-09-12 08:09:00,54.9,53.2,30.11,North,355,0.0,0.5,94,0.00,BKN,,0.01,14.0,WeatherDisplay:10.37,2013-09-12 13:09:00,
2013-09-12 08:14:00,54.9,53.2,30.11,North,355,0.0,0.5,94,0.00,BKN,,0.01,14.0,WeatherDisplay:10.37,2013-09-12 13:14:00,
2013-09-12 08:19:00,55.2,53.2,30.11,North,9,2.3,2.3,93,0.00,BKN,,0.01,32.0,WeatherDisplay:10.37,2013-09-12 13:19:00,
2013-09-12 08:24:00,55.2,53.2,30.11,NW,324,1.1,1.1,93,0.00,BKN,,0.01,33.0,WeatherDisplay:10.37,2013-09-12 13:24:00,
2013-09-12 08:29:00,55.2,53.2,30.11,NW,324,0.0,0.2,93,0.00,BKN,,0.01,33.0,WeatherDisplay:10.37,2013-09-12 13:29:00,
2013-09-12 08:34:00,55.2,53.2,30.11,NW,324,0.0,0.2,93,0.00,BKN,,0.01,33.0,WeatherDisplay:10.37,2013-09-12 13:34:00,
2013-09-12 08:39:00,55.2,53.2,30.11,NW,324,0.0,0.2,93,0.00,BKN,,0.01,33.0,WeatherDisplay:10.37,2013-09-12 13:39:00,
2013-09-12 08:44:00,55.2,53.2,30.11,NW,324,0.0,0.2,93,0.00,BKN,,0.01,33.0,WeatherDisplay:10.37,2013-09-12 13:44:00,
2013-09-12 08:49:00,55.9,53.9,30.12,SW,223,1.1,1.1,93,0.00,BKN,,0.01,58.0,WeatherDisplay:10.37,2013-09-12 13:49:00,
2013-09-12 08:54:00,56.0,53.7,30.12,NNE,17,2.3,2.3,92,0.00,BKN,,0.01,54.0,WeatherDisplay:10.37,2013-09-12 13:54:00,
2013-09-12 08:59:00,55.2,53.2,30.11,NW,324,0.0,0.2,93,0.00,BKN,,0.01,33.0,WeatherDisplay:10.37,2013-09-12 13:59:00,
2013-09-12 09:04:00,55.2,53.2,30.11,NW,324,0.0,0.2,93,0.00,OVC,,0.01,33.0,WeatherDisplay:10.37,2013-09-12 14:04:00,
2013-09-12 09:09:00,56.3,54.0,30.12,NNW,343,0.0,0.0,92,0.00,OVC,,0.01,95.0,WeatherDisplay:10.37,2013-09-12 14:09:00,
2013-09-12 09:14:00,55.2,53.2,30.11,NW,324,0.0,0.2,93,0.00,OVC,,0.01,33.0,WeatherDisplay:10.37,2013-09-12 14:14:00,
2013-09-12 09:19:00,55.2,53.2,30.11,NW,324,0.0,0.2,93,0.00,OVC,,0.01,33.0,WeatherDisplay:10.37,2013-09-12 14:19:00,
2013-09-12 09:24:00,55.2,53.2,30.11,NW,324,0.0,0.2,93,0.00,OVC,,0.01,33.0,WeatherDisplay:10.37,2013-09-12 14:24:00,
2013-09-12 09:29:00,55.2,53.2,30.11,NW,324,0.0,0.2,93,0.00,OVC,,0.01,33.0,WeatherDisplay:10.37,2013-09-12 14:29:00,
2013-09-12 09:34:00,55.2,53.2,30.11,NW,324,0.0,0.2,93,0.00,OVC,,0.01,33.0,WeatherDisplay:10.37,2013-09-12 14:34:00,
2013-09-12 09:39:00,57.2,53.7,30.12,NNE,25,1.1,0.0,88,0.00,OVC,,0.01,44.0,WeatherDisplay:10.37,2013-09-12 14:39:00,
2013-09-12 09:44:00,55.2,53.2,30.11,NW,324,0.0,0.2,93,0.00,OVC,,0.01,33.0,WeatherDisplay:10.37,2013-09-12 14:44:00,
2013-09-12 09:49:00,57.5,53.7,30.12,WSW,250,2.3,2.3,87,0.00,OVC,,0.01,62.0,WeatherDisplay:10.37,2013-09-12 14:49:00,
2013-09-12 09:54:00,57.7,53.9,30.12,NNW,342,2.3,2.3,87,0.00,OVC,,0.01,81.0,WeatherDisplay:10.37,2013-09-12 14:54:00,
2013-09-12 09:59:00,58.0,54.2,30.12,NW,317,1.1,1.1,87,0.00,OVC,,0.01,167.0,WeatherDisplay:10.37,2013-09-12 14:59:00,
2013-09-12 10:04:00,58.2,54.3,30.12,NW,324,1.1,0.0,87,0.00,BKN,,0.01,69.0,WeatherDisplay:10.37,2013-09-12 15:04:00,
2013-09-12 10:09:00,58.4,54.5,30.13,NW,313,2.3,2.3,87,0.00,BKN,,0.01,63.0,WeatherDisplay:10.37,2013-09-12 15:09:00,
2013-09-12 10:14:00,58.5,54.3,30.13,West,281,2.3,2.3,86,0.00,BKN,,0.01,142.0,WeatherDisplay:10.37,2013-09-12 15:14:00,
2013-09-12 10:19:00,55.2,53.5,30.11,NW,324,1.1,0.0,94,0.00,BKN,,0.01,33.0,WeatherDisplay:10.37,2013-09-12 15:19:00,
2013-09-12 10:24:00,55.2,53.5,30.11,NW,324,1.1,0.0,94,0.00,BKN,,0.01,33.0,WeatherDisplay:10.37,2013-09-12 15:24:00,
2013-09-12 10:29:00,55.2,53.5,30.11,NW,324,1.1,0.0,94,0.00,BKN,,0.01,33.0,WeatherDisplay:10.37,2013-09-12 15:29:00,
2013-09-12 10:34:00,55.2,53.5,30.11,NW,324,1.1,0.0,94,0.00,BKN,,0.01,33.0,WeatherDisplay:10.37,2013-09-12 15:34:00,
2013-09-12 10:39:00,55.2,53.5,30.11,NW,324,1.1,0.0,94,0.00,BKN,,0.01,33.0,WeatherDisplay:10.37,2013-09-12 15:39:00,
2013-09-12 10:44:00,59.3,53.1,30.13,WSW,240,2.3,2.3,80,0.00,BKN,,0.01,60.0,WeatherDisplay:10.37,2013-09-12 15:44:00,
2013-09-12 10:49:00,59.5,52.6,30.13,NNE,26,3.5,3.5,78,0.00,BKN,,0.01,93.0,WeatherDisplay:10.37,2013-09-12 15:49:00,
2013-09-12 10:54:00,59.7,52.8,30.12,ESE,106,3.5,3.5,78,0.00,BKN,,0.01,95.0,WeatherDisplay:10.37,2013-09-12 15:54:00,
2013-09-12 10:59:00,60.1,52.5,30.13,NE,53,3.5,3.5,76,0.00,BKN,,0.01,197.0,WeatherDisplay:10.37,2013-09-12 15:59:00,
2013-09-12 11:04:00,55.2,53.5,30.11,NW,324,1.1,0.0,94,0.00,OVC,,0.01,33.0,WeatherDisplay:10.37,2013-09-12 16:04:00,
2013-09-12 11:09:00,60.6,52.6,30.13,NW,318,4.6,4.6,75,0.00,OVC,,0.01,77.0,WeatherDisplay:10.37,2013-09-12 16:09:00,
2013-09-12 11:14:00,60.4,52.8,30.14,WSW,258,2.3,2.3,76,0.00,OVC,,0.01,120.0,WeatherDisplay:10.37,2013-09-12 16:14:00,
2013-09-12 11:19:00,55.2,53.5,30.11,NW,324,1.1,0.0,94,0.00,OVC,,0.01,33.0,WeatherDisplay:10.37,2013-09-12 16:19:00,
2013-09-12 11:24:00,60.3,52.7,30.14,NNE,15,2.3,2.3,76,0.00,OVC,,0.01,165.0,WeatherDisplay:10.37,2013-09-12 16:24:00,
2013-09-12 11:29:00,60.4,53.5,30.14,WNW,296,6.9,6.9,78,0.00,OVC,,0.01,169.0,WeatherDisplay:10.37,2013-09-12 16:29:00,
2013-09-12 11:34:00,55.2,53.5,30.11,NW,324,1.1,0.0,94,0.00,OVC,,0.01,33.0,WeatherDisplay:10.37,2013-09-12 16:34:00,
2013-09-12 11:39:00,60.7,53.1,30.14,WSW,256,2.0,2.0,76,0.00,OVC,,0.01,199.0,WeatherDisplay:10.37,2013-09-12 16:39:00,
2013-09-12 11:44:00,60.8,52.8,30.14,NE,37,2.3,2.3,75,0.00,OVC,,0.01,193.0,WeatherDisplay:10.37,2013-09-12 16:44:00,
2013-09-12 11:49:00,60.8,52.8,30.14,NNE,24,1.1,1.1,75,0.00,OVC,,0.01,190.0,WeatherDisplay:10.37,2013-09-12 16:49:00,
2013-09-12 11:54:00,60.9,52.9,30.14,NNW,339,5.8,5.8,75,0.00,OVC,,0.01,163.0,WeatherDisplay:10.37,2013-09-12 16:54:00,
2013-09-12 11:59:00,60.9,53.3,30.14,West,260,0.0,1.8,76,0.00,OVC,,0.01,174.0,WeatherDisplay:10.37,2013-09-12 16:59:00,
2013-09-12 12:05:00,62.1,54.4,30.14,SSW,195,5.8,5.8,76,0.00,OVC,,0.01,504.0,WeatherDisplay:10.37,2013-09-12 17:05:00,
2013-09-12 12:10:00,60.9,53.3,30.14,West,260,0.0,1.8,76,0.00,OVC,,0.01,174.0,WeatherDisplay:10.37,2013-09-12 17:10:00,
2013-09-12 12:15:00,60.9,53.3,30.14,West,260,0.0,1.8,76,0.00,OVC,,0.01,174.0,WeatherDisplay:10.37,2013-09-12 17:15:00,
2013-09-12 12:20:00,63.5,52.7,30.15,North,9,3.5,3.5,68,0.00,BKN,,0.01,916.0,WeatherDisplay:10.37,2013-09-12 17:20:00,
2013-09-12 12:25:00,60.9,53.3,30.14,West,260,0.0,1.8,76,0.00,BKN,,0.01,174.0,WeatherDisplay:10.37,2013-09-12 17:25:00,
2013-09-12 12:30:00,63.8,52.2,30.15,North,351,2.0,2.0,66,0.00,BKN,,0.01,77.0,WeatherDisplay:10.37,2013-09-12 17:30:00,
2013-09-12 12:35:00,63.8,53.4,30.15,NNE,24,2.0,2.0,69,0.00,BKN,,0.01,874.0,WeatherDisplay:10.37,2013-09-12 17:35:00,
2013-09-12 12:40:00,64.4,52.8,30.14,NNW,337,4.6,4.6,66,0.00,BKN,,0.01,969.0,WeatherDisplay:10.37,2013-09-12 17:40:00,
2013-09-12 12:45:00,60.9,53.3,30.14,West,260,0.0,1.8,76,0.00,BKN,,0.01,174.0,WeatherDisplay:10.37,2013-09-12 17:45:00,
2013-09-12 12:50:00,60.9,53.3,30.14,West,260,0.0,1.8,76,0.00,BKN,,0.01,174.0,WeatherDisplay:10.37,2013-09-12 17:50:00,
2013-09-12 12:55:00,60.9,53.3,30.14,West,260,0.0,1.8,76,0.00,BKN,,0.01,174.0,WeatherDisplay:10.37,2013-09-12 17:55:00,
2013-09-12 13:00:00,64.3,50.6,30.15,South,188,5.8,5.8,61,0.00,BKN,,0.01,918.0,WeatherDisplay:10.37,2013-09-12 18:00:00,
2013-09-12 13:05:00,60.9,53.3,30.14,West,260,0.0,1.8,76,0.00,BKN,,0.01,174.0,WeatherDisplay:10.37,2013-09-12 18:05:00,
2013-09-12 13:10:00,64.5,52.5,30.14,NE,54,3.0,3.0,65,0.00,BKN,,0.01,875.0,WeatherDisplay:10.37,2013-09-12 18:10:00,
2013-09-12 13:15:00,64.7,51.4,30.14,SSW,212,3.5,3.5,62,0.00,BKN,,0.01,171.0,WeatherDisplay:10.37,2013-09-12 18:15:00,
2013-09-12 13:20:00,64.2,51.3,30.15,East,80,3.5,3.5,63,0.00,BKN,,0.01,250.0,WeatherDisplay:10.37,2013-09-12 18:20:00,
2013-09-12 13:25:00,63.9,52.7,30.15,NE,42,3.5,3.5,67,0.00,BKN,,0.01,243.0,WeatherDisplay:10.37,2013-09-12 18:25:00,
2013-09-12 13:30:00,63.9,51.1,30.15,NNE,20,6.9,6.9,63,0.00,BKN,,0.01,308.0,WeatherDisplay:10.37,2013-09-12 18:30:00,
2013-09-12 13:35:00,63.8,51.4,30.15,NE,37,4.6,4.6,64,0.00,BKN,,0.01,501.0,WeatherDisplay:10.37,2013-09-12 18:35:00,
2013-09-12 13:40:00,63.5,50.2,30.15,NE,49,4.6,4.6,62,0.00,BKN,,0.01,849.0,WeatherDisplay:10.37,2013-09-12 18:40:00,
2013-09-12 13:45:00,63.8,51.4,30.15,NE,37,3.5,3.5,64,0.00,BKN,,0.01,501.0,WeatherDisplay:10.37,2013-09-12 18:45:00,
2013-09-12 13:50:00,64.5,51.2,30.14,SSW,210,4.6,0.0,62,0.00,BKN,,0.01,214.0,WeatherDisplay:10.37,2013-09-12 18:50:00,
2013-09-12 13:55:00,64.6,51.3,30.15,ENE,69,3.5,3.5,62,0.00,BKN,,0.01,898.0,WeatherDisplay:10.37,2013-09-12 18:55:00,
2013-09-12 14:00:00,64.4,52.0,30.14,NW,306,0.0,0.0,64,0.00,BKN,,0.01,214.0,WeatherDisplay:10.37,2013-09-12 19:00:00,
2013-09-12 14:05:00,64.4,52.0,30.14,NW,306,0.0,0.0,64,0.00,BKN,,0.01,214.0,WeatherDisplay:10.37,2013-09-12 19:05:00,
2013-09-12 14:10:00,64.5,49.8,30.15,NE,51,2.0,2.0,59,0.00,BKN,,0.01,812.0,WeatherDisplay:10.37,2013-09-12 19:10:00,
2013-09-12 14:15:00,64.9,51.1,30.15,West,261,2.3,2.3,61,0.00,BKN,,0.01,986.0,WeatherDisplay:10.37,2013-09-12 19:15:00,
2013-09-12 14:20:00,65.2,49.6,30.15,NE,38,5.8,5.8,57,0.00,BKN,,0.01,207.0,WeatherDisplay:10.37,2013-09-12 19:20:00,
2013-09-12 14:25:00,64.8,50.1,30.15,North,355,2.3,2.3,59,0.00,BKN,,0.01,237.0,WeatherDisplay:10.37,2013-09-12 19:25:00,
2013-09-12 14:30:00,64.5,49.8,30.15,NNE,27,1.1,1.1,59,0.00,BKN,,0.01,178.0,WeatherDisplay:10.37,2013-09-12 19:30:00,
2013-09-12 14:35:00,64.1,49.0,30.15,West,265,3.5,3.5,58,0.00,BKN,,0.01,190.0,WeatherDisplay:10.37,2013-09-12 19:35:00,
2013-09-12 14:40:00,64.3,49.7,30.15,NNE,21,1.1,0.0,59,0.00,BKN,,0.01,904.0,WeatherDisplay:10.37,2013-09-12 19:40:00,
2013-09-12 14:45:00,64.3,49.7,30.15,NNE,21,1.1,0.0,59,0.00,BKN,,0.01,904.0,WeatherDisplay:10.37,2013-09-12 19:45:00,
2013-09-12 14:50:00,64.3,49.7,30.15,NNE,21,1.1,0.0,59,0.00,BKN,,0.01,904.0,WeatherDisplay:10.37,2013-09-12 19:50:00,
2013-09-12 14:55:00,64.3,49.7,30.15,NNE,21,1.1,0.0,59,0.00,BKN,,0.01,904.0,WeatherDisplay:10.37,2013-09-12 19:55:00,
2013-09-12 15:00:00,64.3,49.7,30.15,NNE,21,1.1,0.0,59,0.00,BKN,,0.01,904.0,WeatherDisplay:10.37,2013-09-12 20:00:00,
2013-09-12 15:05:00,64.3,49.7,30.15,NNE,21,1.1,0.0,59,0.00,BKN,,0.01,904.0,WeatherDisplay:10.37,2013-09-12 20:05:00,
2013-09-12 15:10:00,64.3,49.7,30.15,NNE,21,1.1,0.0,59,0.00,BKN,,0.01,904.0,WeatherDisplay:10.37,2013-09-12 20:10:00,
2013-09-12 15:15:00,64.3,49.7,30.15,NNE,21,1.1,0.0,59,0.00,BKN,,0.01,904.0,WeatherDisplay:10.37,2013-09-12 20:15:00,
2013-09-12 15:20:00,65.4,49.3,30.15,NE,38,2.3,0.0,56,0.00,BKN,,0.01,686.0,WeatherDisplay:10.37,2013-09-12 20:20:00,
2013-09-12 15:25:00,64.3,49.7,30.15,NNE,21,1.1,0.0,59,0.00,BKN,,0.01,904.0,WeatherDisplay:10.37,2013-09-12 20:25:00,
2013-09-12 15:30:00,64.3,49.7,30.15,NNE,21,1.1,0.0,59,0.00,BKN,,0.01,904.0,WeatherDisplay:10.37,2013-09-12 20:30:00,
2013-09-12 15:35:00,64.7,48.6,30.15,NE,35,3.5,3.5,56,0.00,BKN,,0.01,255.0,WeatherDisplay:10.37,2013-09-12 20:35:00,
2013-09-12 15:40:00,65.0,48.4,30.15,NW,309,3.5,3.5,55,0.00,BKN,,0.01,795.0,WeatherDisplay:10.37,2013-09-12 20:40:00,
2013-09-12 15:45:00,64.3,49.7,30.15,NNE,21,1.1,0.0,59,0.00,BKN,,0.01,904.0,WeatherDisplay:10.37,2013-09-12 20:45:00,
2013-09-12 15:50:00,64.3,49.7,30.15,NNE,21,1.1,0.0,59,0.00,BKN,,0.01,904.0,WeatherDisplay:10.37,2013-09-12 20:50:00,
2013-09-12 15:55:00,65.2,49.6,30.14,North,5,2.3,2.3,57,0.00,BKN,,0.01,722.0,WeatherDisplay:10.37,2013-09-12 20:55:00,
2013-09-12 16:01:00,65.3,49.7,30.15,NNE,22,1.1,1.3,57,0.00,BKN,,0.01,708.0,WeatherDisplay:10.37,2013-09-12 21:01:00,
2013-09-12 16:06:00,64.3,49.7,30.15,NNE,21,1.1,0.0,59,0.00,BKN,,0.01,904.0,WeatherDisplay:10.37,2013-09-12 21:06:00,
2013-09-12 16:11:00,64.3,49.7,30.15,NNE,21,1.1,0.0,59,0.00,BKN,,0.01,904.0,WeatherDisplay:10.37,2013-09-12 21:11:00,
2013-09-12 16:16:00,64.3,49.7,30.15,NNE,21,1.1,0.0,59,0.00,BKN,,0.01,904.0,WeatherDisplay:10.37,2013-09-12 21:16:00,
2013-09-12 16:21:00,64.9,48.3,30.15,NE,51,3.5,3.5,55,0.00,SCT,,0.01,684.0,WeatherDisplay:10.37,2013-09-12 21:21:00,
2013-09-12 16:26:00,64.6,48.1,30.15,NE,34,0.0,0.4,55,0.00,SCT,,0.01,97.0,WeatherDisplay:10.37,2013-09-12 21:26:00,
2013-09-12 16:31:00,63.8,48.3,30.15,South,169,3.5,3.5,57,0.00,SCT,,0.01,102.0,WeatherDisplay:10.37,2013-09-12 21:31:00,
2013-09-12 16:36:00,64.6,48.1,30.15,NE,34,0.0,0.4,55,0.00,SCT,,0.01,97.0,WeatherDisplay:10.37,2013-09-12 21:36:00,
2013-09-12 16:41:00,62.9,48.3,30.15,WNW,287,3.5,3.5,59,0.00,SCT,,0.01,529.0,WeatherDisplay:10.37,2013-09-12 21:41:00,
2013-09-12 16:46:00,64.6,48.1,30.15,NE,34,0.0,0.4,55,0.00,SCT,,0.01,97.0,WeatherDisplay:10.37,2013-09-12 21:46:00,
2013-09-12 16:51:00,64.6,48.1,30.15,NE,34,0.0,0.4,55,0.00,SCT,,0.01,97.0,WeatherDisplay:10.37,2013-09-12 21:51:00,
2013-09-12 16:56:00,64.9,50.2,30.15,NNE,17,3.5,3.5,59,0.00,SCT,,0.01,520.0,WeatherDisplay:10.37,2013-09-12 21:56:00,
2013-09-12 17:01:00,65.5,48.9,30.14,ENE,62,3.5,3.5,55,0.00,SCT,,0.01,496.0,WeatherDisplay:10.37,2013-09-12 22:01:00,
2013-09-12 17:06:00,65.0,48.9,30.15,WNW,287,3.5,3.5,56,0.00,SCT,,0.01,385.0,WeatherDisplay:10.37,2013-09-12 22:06:00,
2013-09-12 17:11:00,65.5,48.9,30.14,ENE,62,3.5,3.5,55,0.00,SCT,,0.01,496.0,WeatherDisplay:10.37,2013-09-12 22:11:00,
2013-09-12 17:16:00,63.4,49.3,30.15,NNE,28,2.0,2.0,60,0.00,SCT,,0.01,380.0,WeatherDisplay:10.37,2013-09-12 22:16:00,
2013-09-12 17:21:00,63.5,49.4,30.15,NNE,13,1.0,0.0,60,0.00,BKN,,0.01,369.0,WeatherDisplay:10.37,2013-09-12 22:21:00,
2013-09-12 17:26:00,63.9,49.7,30.15,NNW,336,1.1,1.1,60,0.00,BKN,,0.01,204.0,WeatherDisplay:10.37,2013-09-12 22:26:00,
2013-09-12 17:31:00,63.5,48.9,30.15,NNW,338,0.0,0.2,59,0.00,BKN,,0.01,30.0,WeatherDisplay:10.37,2013-09-12 22:31:00,
2013-09-12 17:36:00,63.5,48.9,30.15,NNW,338,0.0,0.2,59,0.00,BKN,,0.01,30.0,WeatherDisplay:10.37,2013-09-12 22:36:00,
2013-09-12 17:41:00,62.8,47.8,30.15,West,273,0.0,0.0,58,0.00,BKN,,0.01,60.0,WeatherDisplay:10.37,2013-09-12 22:41:00,
2013-09-12 17:46:00,62.8,47.8,30.15,West,273,0.0,0.0,58,0.00,BKN,,0.01,60.0,WeatherDisplay:10.37,2013-09-12 22:46:00,
2013-09-12 17:51:00,61.8,48.6,30.16,East,88,2.3,2.3,62,0.00,BKN,,0.01,32.0,WeatherDisplay:10.37,2013-09-12 22:51:00,
2013-09-12 17:56:00,62.8,47.8,30.15,West,273,0.0,0.0,58,0.00,BKN,,0.01,60.0,WeatherDisplay:10.37,2013-09-12 22:56:00,
2013-09-12 18:01:00,61.0,47.9,30.16,NNE,13,2.3,2.3,62,0.00,BKN,,0.01,28.0,WeatherDisplay:10.37,2013-09-12 23:01:00,
2013-09-12 18:06:00,60.7,48.4,30.16,NNE,27,2.3,2.3,64,0.00,CLR,,0.01,40.0,WeatherDisplay:10.37,2013-09-12 23:06:00,
2013-09-12 18:11:00,61.1,47.5,30.16,NNE,19,2.3,2.3,61,0.00,CLR,,0.01,26.0,WeatherDisplay:10.37,2013-09-12 23:11:00,
2013-09-12 18:16:00,61.1,47.5,30.16,NNE,19,1.1,2.0,61,0.00,CLR,,0.01,26.0,WeatherDisplay:10.37,2013-09-12 23:16:00,
2013-09-12 18:21:00,60.0,49.0,30.16,NNW,347,1.1,1.1,67,0.00,CLR,,0.01,12.0,WeatherDisplay:10.37,2013-09-12 23:21:00,
2013-09-12 18:26:00,61.1,47.5,30.16,NNE,19,1.1,2.0,61,0.00,CLR,,0.01,26.0,WeatherDisplay:10.37,2013-09-12 23:26:00,
2013-09-12 18:31:00,61.1,47.5,30.16,NNE,19,1.1,2.0,61,0.00,CLR,,0.01,26.0,WeatherDisplay:10.37,2013-09-12 23:31:00,
2013-09-12 18:36:00,59.2,49.0,30.17,NNW,348,0.0,0.0,69,0.00,CLR,,0.01,14.0,WeatherDisplay:10.37,2013-09-12 23:36:00,
2013-09-12 18:41:00,58.9,49.5,30.17,NNW,347,0.0,0.0,71,0.00,CLR,,0.01,12.0,WeatherDisplay:10.37,2013-09-12 23:41:00,
2013-09-12 18:46:00,61.1,47.5,30.16,NNE,19,1.1,2.0,61,0.00,CLR,,0.01,26.0,WeatherDisplay:10.37,2013-09-12 23:46:00,
2013-09-12 18:51:00,58.5,49.1,30.17,North,350,1.1,1.1,71,0.00,CLR,,0.01,11.0,WeatherDisplay:10.37,2013-09-12 23:51:00,
2013-09-12 18:56:00,58.5,49.1,30.17,North,350,1.1,1.1,71,0.00,CLR,,0.01,11.0,WeatherDisplay:10.37,2013-09-12 23:56:00,
2013-09-12 19:01:00,58.5,49.1,30.17,North,350,1.1,1.1,71,0.00,CLR,,0.01,11.0,WeatherDisplay:10.37,2013-09-13 00:01:00,
2013-09-12 19:06:00,58.5,49.1,30.17,North,350,1.1,1.1,71,0.00,CLR,,0.01,11.0,WeatherDisplay:10.37,2013-09-13 00:06:00,
2013-09-12 19:11:00,58.5,49.1,30.17,North,350,1.1,1.1,71,0.00,CLR,,0.01,11.0,WeatherDisplay:10.37,2013-09-13 00:11:00,
2013-09-12 19:16:00,56.6,49.5,30.17,North,5,2.3,2.3,77,0.00,CLR,,0.01,0.0,WeatherDisplay:10.37,2013-09-13 00:16:00,
2013-09-12 19:21:00,58.5,49.1,30.17,North,350,1.1,1.1,71,0.00,CLR,,0.01,11.0,WeatherDisplay:10.37,2013-09-13 00:21:00,
2013-09-12 19:26:00,58.5,49.1,30.17,North,350,1.1,1.1,71,0.00,CLR,,0.01,11.0,WeatherDisplay:10.37,2013-09-13 00:26:00,
2013-09-12 19:31:00,55.6,49.2,30.18,ENE,69,0.0,0.0,79,0.00,CLR,,0.01,0.0,WeatherDisplay:10.37,2013-09-13 00:31:00,
2013-09-12 19:36:00,55.3,48.9,30.18,East,91,2.3,2.3,79,0.00,CLR,,0.01,0.0,WeatherDisplay:10.37,2013-09-13 00:36:00,
2013-09-12 19:41:00,54.9,48.8,30.18,East,91,1.1,1.1,80,0.00,CLR,,0.01,0.0,WeatherDisplay:10.37,2013-09-13 00:41:00,
2013-09-12 19:46:00,54.6,48.6,30.18,East,86,3.5,3.5,80,0.00,CLR,,0.01,0.0,WeatherDisplay:10.37,2013-09-13 00:46:00,
2013-09-12 19:51:00,55.1,49.0,30.18,East,91,0.0,0.3,80,0.00,CLR,,0.01,0.0,WeatherDisplay:10.37,2013-09-13 00:51:00,
2013-09-12 19:56:00,55.1,49.0,30.18,East,91,0.0,0.3,80,0.00,CLR,,0.01,0.0,WeatherDisplay:10.37,2013-09-13 00:56:00,
2013-09-12 20:01:00,53.7,48.0,30.19,East,96,1.1,1.1,81,0.00,CLR,,0.01,0.0,WeatherDisplay:10.37,2013-09-13 01:01:00,
2013-09-12 20:06:00,53.4,47.7,30.20,East,96,0.0,0.0,81,0.00,CLR,,0.01,0.0,WeatherDisplay:10.37,2013-09-13 01:06:00,
2013-09-12 20:11:00,55.1,49.0,30.18,East,91,0.0,0.3,80,0.00,CLR,,0.01,0.0,WeatherDisplay:10.37,2013-09-13 01:11:00,
2013-09-12 20:16:00,55.1,49.0,30.18,East,91,0.0,0.3,80,0.00,CLR,,0.01,0.0,WeatherDisplay:10.37,2013-09-13 01:16:00,
2013-09-12 20:21:00,55.1,49.0,30.18,East,91,0.0,0.3,80,0.00,CLR,,0.01,0.0,WeatherDisplay:10.37,2013-09-13 01:21:00,
2013-09-12 20:26:00,55.1,49.0,30.18,East,91,0.0,0.3,80,0.00,CLR,,0.01,0.0,WeatherDisplay:10.37,2013-09-13 01:26:00,
2013-09-12 20:31:00,52.2,47.2,30.21,East,96,0.0,0.0,83,0.00,CLR,,0.01,0.0,WeatherDisplay:10.37,2013-09-13 01:31:00,
2013-09-12 20:36:00,55.1,49.0,30.18,East,91,0.0,0.3,80,0.00,CLR,,0.01,0.0,WeatherDisplay:10.37,2013-09-13 01:36:00,
2013-09-12 20:41:00,55.1,49.0,30.18,East,91,0.0,0.3,80,0.00,CLR,,0.01,0.0,WeatherDisplay:10.37,2013-09-13 01:41:00,
2013-09-12 20:46:00,55.1,49.0,30.18,East,91,0.0,0.3,80,0.00,CLR,,0.01,0.0,WeatherDisplay:10.37,2013-09-13 01:46:00,
2013-09-12 20:51:00,50.6,46.6,30.21,East,96,0.0,0.0,86,0.00,CLR,,0.01,0.0,WeatherDisplay:10.37,2013-09-13 01:51:00,
2013-09-12 20:56:00,50.3,46.6,30.21,East,96,0.0,0.0,87,0.00,CLR,,0.01,0.0,WeatherDisplay:10.37,2013-09-13 01:56:00,
2013-09-12 21:01:00,50.0,46.0,30.21,East,96,0.0,0.0,86,0.00,CLR,,0.01,0.0,WeatherDisplay:10.37,2013-09-13 02:01:00,
2013-09-12 21:06:00,50.0,46.0,30.21,East,96,0.0,0.0,86,0.00,CLR,,0.01,0.0,WeatherDisplay:10.37,2013-09-13 02:06:00,
2013-09-12 21:11:00,50.0,46.0,30.21,East,96,0.0,0.0,86,0.00,CLR,,0.01,0.0,WeatherDisplay:10.37,2013-09-13 02:11:00,
2013-09-12 21:16:00,48.9,45.8,30.21,East,96,0.0,0.0,89,0.00,CLR,,0.01,0.0,WeatherDisplay:10.37,2013-09-13 02:16:00,
2013-09-12 21:22:00,48.5,45.4,30.21,East,96,0.0,0.0,89,0.00,CLR,,0.01,0.0,WeatherDisplay:10.37,2013-09-13 02:22:00,
2013-09-12 21:27:00,48.1,45.3,30.21,East,96,0.0,0.0,90,0.00,CLR,,0.01,0.0,WeatherDisplay:10.37,2013-09-13 02:27:00,
2013-09-12 21:32:00,47.8,45.0,30.21,East,96,0.0,0.0,90,0.00,CLR,,0.01,0.0,WeatherDisplay:10.37,2013-09-13 02:32:00,
2013-09-12 21:37:00,50.0,46.0,30.21,East,96,0.0,0.0,86,0.00,CLR,,0.01,0.0,WeatherDisplay:10.37,2013-09-13 02:37:00,
2013-09-12 21:42:00,47.3,44.8,30.21,East,96,0.0,0.0,91,0.00,CLR,,0.01,0.0,WeatherDisplay:10.37,2013-09-13 02:42:00,
2013-09-12 21:47:00,47.0,44.5,30.22,East,96,0.0,0.0,91,0.00,CLR,,0.01,0.0,WeatherDisplay:10.37,2013-09-13 02:47:00,
2013-09-12 21:52:00,50.0,46.0,30.21,East,96,0.0,0.0,86,0.00,CLR,,0.01,0.0,WeatherDisplay:10.37,2013-09-13 02:52:00,
2013-09-12 21:57:00,50.0,46.0,30.21,East,96,0.0,0.0,86,0.00,CLR,,0.01,0.0,WeatherDisplay:10.37,2013-09-13 02:57:00,
2013-09-12 22:02:00,50.0,46.0,30.21,East,96,0.0,0.0,86,0.00,CLR,,0.01,0.0,WeatherDisplay:10.37,2013-09-13 03:02:00,
2013-09-12 22:07:00,46.0,43.8,30.22,East,96,0.0,0.0,92,0.00,CLR,,0.01,0.0,WeatherDisplay:10.37,2013-09-13 03:07:00,
2013-09-12 22:12:00,45.9,43.7,30.22,East,96,0.0,0.0,92,0.00,CLR,,0.01,0.0,WeatherDisplay:10.37,2013-09-13 03:12:00,
2013-09-12 22:17:00,45.6,43.4,30.22,East,96,0.0,0.0,92,0.00,CLR,,0.01,0.0,WeatherDisplay:10.37,2013-09-13 03:17:00,
2013-09-12 22:22:00,50.0,46.0,30.21,East,96,0.0,0.0,86,0.00,CLR,,0.01,0.0,WeatherDisplay:10.37,2013-09-13 03:22:00,
2013-09-12 22:27:00,45.0,42.8,30.22,East,96,0.0,0.0,92,0.00,CLR,,0.01,0.0,WeatherDisplay:10.37,2013-09-13 03:27:00,
2013-09-12 22:32:00,50.0,46.0,30.21,East,96,0.0,0.0,86,0.00,CLR,,0.01,0.0,WeatherDisplay:10.37,2013-09-13 03:32:00,
2013-09-12 22:37:00,50.0,46.0,30.21,East,96,0.0,0.0,86,0.00,CLR,,0.01,0.0,WeatherDisplay:10.37,2013-09-13 03:37:00,
2013-09-12 22:42:00,44.6,42.7,30.23,East,96,0.0,0.0,93,0.00,CLR,,0.01,0.0,WeatherDisplay:10.37,2013-09-13 03:42:00,
2013-09-12 22:47:00,44.7,42.8,30.23,East,96,0.0,0.0,93,0.00,CLR,,0.01,0.0,WeatherDisplay:10.37,2013-09-13 03:47:00,
2013-09-12 22:52:00,44.3,42.4,30.23,East,96,0.0,0.0,93,0.00,CLR,,0.01,0.0,WeatherDisplay:10.37,2013-09-13 03:52:00,
2013-09-12 22:57:00,44.1,42.2,30.23,East,96,0.0,0.0,93,0.00,CLR,,0.01,0.0,WeatherDisplay:10.37,2013-09-13 03:57:00,
2013-09-12 23:01:00,44.0,42.1,30.23,East,96,0.0,0.0,93,0.00,CLR,,0.01,0.0,WeatherDisplay:10.37,2013-09-13 04:01:00,
2013-09-12 23:02:00,44.7,42.8,30.23,East,96,0.0,0.0,93,0.00,CLR,,0.01,0.0,WeatherDisplay:10.37,2013-09-13 04:02:00,
2013-09-12 23:03:00,44.7,42.8,30.23,East,96,0.0,0.0,93,0.00,CLR,,0.01,0.0,WeatherDisplay:10.37,2013-09-13 04:03:00,
2013-09-12 23:08:00,43.8,41.9,30.23,East,96,0.0,0.0,93,0.00,CLR,,0.01,0.0,WeatherDisplay:10.37,2013-09-13 04:08:00,
2013-09-12 23:13:00,44.7,42.8,30.23,East,96,0.0,0.0,93,0.00,CLR,,0.01,0.0,WeatherDisplay:10.37,2013-09-13 04:13:00,
2013-09-12 23:18:00,43.4,41.5,30.23,East,96,0.0,0.0,93,0.00,CLR,,0.01,0.0,WeatherDisplay:10.37,2013-09-13 04:18:00,
2013-09-12 23:23:00,44.7,42.8,30.23,East,96,0.0,0.0,93,0.00,CLR,,0.01,0.0,WeatherDisplay:10.37,2013-09-13 04:23:00,
2013-09-12 23:28:00,43.2,41.6,30.23,East,96,0.0,0.0,94,0.00,CLR,,0.01,0.0,WeatherDisplay:10.37,2013-09-13 04:28:00,
2013-09-12 23:33:00,43.1,41.2,30.23,East,96,0.0,0.0,93,0.00,CLR,,0.01,0.0,WeatherDisplay:10.37,2013-09-13 04:33:00,
2013-09-12 23:38:00,43.0,41.4,30.23,East,96,0.0,0.0,94,0.00,CLR,,0.01,0.0,WeatherDisplay:10.37,2013-09-13 04:38:00,
2013-09-12 23:43:00,42.8,41.2,30.23,East,96,0.0,0.0,94,0.00,CLR,,0.01,0.0,WeatherDisplay:10.37,2013-09-13 04:43:00,
2013-09-12 23:48:00,42.7,41.1,30.23,East,96,0.0,0.0,94,0.00,CLR,,0.01,0.0,WeatherDisplay:10.37,2013-09-13 04:48:00,
2013-09-12 23:53:00,42.8,41.2,30.23,East,96,0.0,0.0,94,0.00,CLR,,0.01,0.0,WeatherDisplay:10.37,2013-09-13 04:53:00,
2013-09-12 23:58:00,42.8,41.2,30.23,East,96,0.0,0.0,94,0.00,CLR,,0.01,0.0,WeatherDisplay:10.37,2013-09-13 04:58:00,